sensor_id;sensor_type;location;lat;lon;timestamp;P1;durP1;ratioP1;P2;durP2;ratioP2
21731;SDS011;11028;51.156;17.130;2022-11-20T00:06:17;72.10;;;31.25;;
21731;SDS011;11028;51.156;17.130;2022-11-20T00:13:36;83.45;;;31.80;;
21731;SDS011;11028;51.156;17.130;2022-11-20T00:20:54;80.40;;;33.08;;
21731;SDS011;11028;51.156;17.130;2022-11-20T00:35:35;104.82;;;41.63;;
21731;SDS011;11028;51.156;17.130;2022-11-20T00:42:52;120.82;;;47.70;;
21731;SDS011;11028;51.156;17.130;2022-11-20T00:50:08;108.05;;;42.65;;
21731;SDS011;11028;51.156;17.130;2022-11-20T00:57:26;99.72;;;39.13;;
21731;SDS011;11028;51.156;17.130;2022-11-20T01:04:43;90.22;;;36.00;;
21731;SDS011;11028;51.156;17.130;2022-11-20T01:12:00;92.28;;;35.42;;
21731;SDS011;11028;51.156;17.130;2022-11-20T01:19:19;86.40;;;35.35;;
21731;SDS011;11028;51.156;17.130;2022-11-20T01:26:37;85.50;;;36.67;;
21731;SDS011;11028;51.156;17.130;2022-11-20T01:33:55;92.43;;;35.30;;
21731;SDS011;11028;51.156;17.130;2022-11-20T01:41:14;86.45;;;34.15;;
21731;SDS011;11028;51.156;17.130;2022-11-20T01:48:53;88.20;;;35.25;;
21731;SDS011;11028;51.156;17.130;2022-11-20T01:56:11;85.72;;;34.90;;
21731;SDS011;11028;51.156;17.130;2022-11-20T02:03:30;80.53;;;32.33;;
21731;SDS011;11028;51.156;17.130;2022-11-20T02:10:48;83.75;;;32.88;;
21731;SDS011;11028;51.156;17.130;2022-11-20T02:18:06;85.10;;;33.30;;
21731;SDS011;11028;51.156;17.130;2022-11-20T02:25:25;81.43;;;31.65;;
21731;SDS011;11028;51.156;17.130;2022-11-20T02:32:42;78.65;;;30.70;;
21731;SDS011;11028;51.156;17.130;2022-11-20T02:39:59;83.25;;;32.95;;
21731;SDS011;11028;51.156;17.130;2022-11-20T02:47:17;79.85;;;31.15;;
21731;SDS011;11028;51.156;17.130;2022-11-20T02:54:34;80.78;;;32.33;;
21731;SDS011;11028;51.156;17.130;2022-11-20T03:01:50;80.32;;;31.00;;
21731;SDS011;11028;51.156;17.130;2022-11-20T03:09:09;78.75;;;30.65;;
21731;SDS011;11028;51.156;17.130;2022-11-20T03:16:26;76.53;;;30.77;;
21731;SDS011;11028;51.156;17.130;2022-11-20T03:23:42;82.07;;;29.52;;
21731;SDS011;11028;51.156;17.130;2022-11-20T03:31:05;76.10;;;30.05;;
21731;SDS011;11028;51.156;17.130;2022-11-20T03:38:23;80.88;;;31.10;;
21731;SDS011;11028;51.156;17.130;2022-11-20T03:45:40;80.43;;;32.22;;
21731;SDS011;11028;51.156;17.130;2022-11-20T03:52:58;73.93;;;29.77;;
21731;SDS011;11028;51.156;17.130;2022-11-20T04:00:15;75.50;;;30.75;;
21731;SDS011;11028;51.156;17.130;2022-11-20T04:07:33;68.88;;;28.88;;
21731;SDS011;11028;51.156;17.130;2022-11-20T04:14:51;76.47;;;32.03;;
21731;SDS011;11028;51.156;17.130;2022-11-20T04:22:09;72.97;;;30.92;;
21731;SDS011;11028;51.156;17.130;2022-11-20T04:29:26;79.47;;;30.10;;
21731;SDS011;11028;51.156;17.130;2022-11-20T04:36:44;74.57;;;31.52;;
21731;SDS011;11028;51.156;17.130;2022-11-20T04:44:02;85.63;;;32.85;;
21731;SDS011;11028;51.156;17.130;2022-11-20T04:51:20;78.45;;;32.42;;
21731;SDS011;11028;51.156;17.130;2022-11-20T04:58:38;84.43;;;33.63;;
21731;SDS011;11028;51.156;17.130;2022-11-20T05:05:55;90.03;;;37.13;;
21731;SDS011;11028;51.156;17.130;2022-11-20T05:13:12;74.55;;;33.05;;
21731;SDS011;11028;51.156;17.130;2022-11-20T05:20:30;73.43;;;29.70;;
21731;SDS011;11028;51.156;17.130;2022-11-20T05:27:47;77.68;;;31.17;;
21731;SDS011;11028;51.156;17.130;2022-11-20T05:35:04;75.75;;;30.20;;
21731;SDS011;11028;51.156;17.130;2022-11-20T05:42:22;68.60;;;28.88;;
21731;SDS011;11028;51.156;17.130;2022-11-20T05:49:48;72.63;;;31.05;;
21731;SDS011;11028;51.156;17.130;2022-11-20T05:57:04;79.20;;;32.75;;
21731;SDS011;11028;51.156;17.130;2022-11-20T06:04:23;85.25;;;34.13;;
21731;SDS011;11028;51.156;17.130;2022-11-20T06:11:40;82.32;;;33.63;;
21731;SDS011;11028;51.156;17.130;2022-11-20T06:18:56;81.75;;;33.97;;
21731;SDS011;11028;51.156;17.130;2022-11-20T06:26:15;88.90;;;33.72;;
21731;SDS011;11028;51.156;17.130;2022-11-20T06:33:33;88.50;;;33.67;;
21731;SDS011;11028;51.156;17.130;2022-11-20T06:40:50;84.57;;;32.05;;
21731;SDS011;11028;51.156;17.130;2022-11-20T06:48:08;78.18;;;32.65;;
21731;SDS011;11028;51.156;17.130;2022-11-20T06:55:25;78.68;;;32.42;;
21731;SDS011;11028;51.156;17.130;2022-11-20T07:02:42;85.63;;;33.83;;
21731;SDS011;11028;51.156;17.130;2022-11-20T07:10:01;79.78;;;32.50;;
21731;SDS011;11028;51.156;17.130;2022-11-20T07:17:21;78.80;;;32.53;;
21731;SDS011;11028;51.156;17.130;2022-11-20T07:24:37;74.38;;;29.50;;
21731;SDS011;11028;51.156;17.130;2022-11-20T07:31:56;65.65;;;27.27;;
21731;SDS011;11028;51.156;17.130;2022-11-20T07:39:13;81.03;;;31.13;;
21731;SDS011;11028;51.156;17.130;2022-11-20T07:46:29;77.70;;;31.88;;
21731;SDS011;11028;51.156;17.130;2022-11-20T07:53:47;71.82;;;29.55;;
21731;SDS011;11028;51.156;17.130;2022-11-20T08:01:07;63.42;;;28.00;;
21731;SDS011;11028;51.156;17.130;2022-11-20T08:08:24;59.97;;;27.95;;
21731;SDS011;11028;51.156;17.130;2022-11-20T08:15:47;54.42;;;24.48;;
21731;SDS011;11028;51.156;17.130;2022-11-20T08:30:22;51.22;;;23.38;;
21731;SDS011;11028;51.156;17.130;2022-11-20T08:37:40;52.70;;;23.50;;
21731;SDS011;11028;51.156;17.130;2022-11-20T08:44:57;57.70;;;25.73;;
21731;SDS011;11028;51.156;17.130;2022-11-20T08:52:14;49.50;;;24.98;;
21731;SDS011;11028;51.156;17.130;2022-11-20T08:59:32;54.25;;;24.50;;
21731;SDS011;11028;51.156;17.130;2022-11-20T09:06:49;52.55;;;23.98;;
21731;SDS011;11028;51.156;17.130;2022-11-20T09:14:06;48.65;;;23.45;;
21731;SDS011;11028;51.156;17.130;2022-11-20T09:21:24;48.70;;;23.60;;
21731;SDS011;11028;51.156;17.130;2022-11-20T09:28:41;50.15;;;23.65;;
21731;SDS011;11028;51.156;17.130;2022-11-20T09:35:58;52.58;;;26.35;;
21731;SDS011;11028;51.156;17.130;2022-11-20T09:43:17;50.10;;;23.38;;
21731;SDS011;11028;51.156;17.130;2022-11-20T09:50:36;43.10;;;22.67;;
21731;SDS011;11028;51.156;17.130;2022-11-20T09:57:56;41.00;;;20.40;;
21731;SDS011;11028;51.156;17.130;2022-11-20T10:05:17;41.72;;;20.70;;
21731;SDS011;11028;51.156;17.130;2022-11-20T10:12:37;40.47;;;20.23;;
21731;SDS011;11028;51.156;17.130;2022-11-20T10:20:14;36.63;;;19.58;;
21731;SDS011;11028;51.156;17.130;2022-11-20T10:27:37;35.33;;;17.73;;
21731;SDS011;11028;51.156;17.130;2022-11-20T10:35:03;35.70;;;18.45;;
21731;SDS011;11028;51.156;17.130;2022-11-20T10:42:26;35.55;;;18.10;;
21731;SDS011;11028;51.156;17.130;2022-11-20T10:49:48;38.65;;;18.27;;
21731;SDS011;11028;51.156;17.130;2022-11-20T10:57:11;39.25;;;17.65;;
21731;SDS011;11028;51.156;17.130;2022-11-20T11:04:44;35.00;;;18.30;;
21731;SDS011;11028;51.156;17.130;2022-11-20T11:12:06;40.88;;;19.77;;
21731;SDS011;11028;51.156;17.130;2022-11-20T11:19:23;39.47;;;19.58;;
21731;SDS011;11028;51.156;17.130;2022-11-20T11:26:50;28.77;;;15.43;;
21731;SDS011;11028;51.156;17.130;2022-11-20T11:34:11;32.78;;;15.18;;
21731;SDS011;11028;51.156;17.130;2022-11-20T11:41:29;31.92;;;16.90;;
21731;SDS011;11028;51.156;17.130;2022-11-20T11:48:56;33.60;;;16.52;;
21731;SDS011;11028;51.156;17.130;2022-11-20T11:56:13;38.67;;;17.45;;
21731;SDS011;11028;51.156;17.130;2022-11-20T12:03:34;36.13;;;18.23;;
21731;SDS011;11028;51.156;17.130;2022-11-20T12:10:54;34.97;;;17.38;;
21731;SDS011;11028;51.156;17.130;2022-11-20T12:18:14;36.30;;;17.23;;
21731;SDS011;11028;51.156;17.130;2022-11-20T12:25:33;33.85;;;17.35;;
21731;SDS011;11028;51.156;17.130;2022-11-20T12:33:01;26.38;;;13.35;;
21731;SDS011;11028;51.156;17.130;2022-11-20T12:40:27;32.53;;;15.77;;
21731;SDS011;11028;51.156;17.130;2022-11-20T12:47:54;27.08;;;13.48;;
21731;SDS011;11028;51.156;17.130;2022-11-20T12:55:32;30.92;;;14.30;;
21731;SDS011;11028;51.156;17.130;2022-11-20T13:02:58;28.38;;;13.88;;
21731;SDS011;11028;51.156;17.130;2022-11-20T13:10:30;31.08;;;14.55;;
21731;SDS011;11028;51.156;17.130;2022-11-20T13:17:52;24.40;;;13.27;;
21731;SDS011;11028;51.156;17.130;2022-11-20T13:25:21;25.83;;;13.88;;
21731;SDS011;11028;51.156;17.130;2022-11-20T13:32:48;25.08;;;13.45;;
21731;SDS011;11028;51.156;17.130;2022-11-20T13:40:20;25.08;;;13.18;;
21731;SDS011;11028;51.156;17.130;2022-11-20T13:47:38;28.02;;;13.23;;
21731;SDS011;11028;51.156;17.130;2022-11-20T13:55:10;25.02;;;11.85;;
21731;SDS011;11028;51.156;17.130;2022-11-20T14:11:16;25.25;;;12.70;;
21731;SDS011;11028;51.156;17.130;2022-11-20T14:18:34;20.58;;;11.13;;
21731;SDS011;11028;51.156;17.130;2022-11-20T14:25:50;19.85;;;11.13;;
21731;SDS011;11028;51.156;17.130;2022-11-20T14:41:53;30.83;;;11.40;;
21731;SDS011;11028;51.156;17.130;2022-11-20T14:49:10;29.77;;;12.57;;
21731;SDS011;11028;51.156;17.130;2022-11-20T14:56:28;33.97;;;15.13;;
21731;SDS011;11028;51.156;17.130;2022-11-20T15:03:46;25.30;;;12.43;;
21731;SDS011;11028;51.156;17.130;2022-11-20T15:11:03;25.27;;;12.93;;
21731;SDS011;11028;51.156;17.130;2022-11-20T15:18:20;38.58;;;15.43;;
21731;SDS011;11028;51.156;17.130;2022-11-20T15:25:40;46.13;;;19.98;;
21731;SDS011;11028;51.156;17.130;2022-11-20T15:41:42;41.75;;;19.02;;
21731;SDS011;11028;51.156;17.130;2022-11-20T15:48:59;39.28;;;17.90;;
21731;SDS011;11028;51.156;17.130;2022-11-20T15:56:16;43.58;;;18.25;;
21731;SDS011;11028;51.156;17.130;2022-11-20T16:03:34;42.95;;;18.63;;
21731;SDS011;11028;51.156;17.130;2022-11-20T16:10:51;43.70;;;19.35;;
21731;SDS011;11028;51.156;17.130;2022-11-20T16:18:08;38.70;;;18.90;;
21731;SDS011;11028;51.156;17.130;2022-11-20T16:25:28;50.03;;;23.10;;
21731;SDS011;11028;51.156;17.130;2022-11-20T16:41:32;67.20;;;29.52;;
21731;SDS011;11028;51.156;17.130;2022-11-20T16:48:51;69.90;;;28.33;;
21731;SDS011;11028;51.156;17.130;2022-11-20T16:56:09;67.80;;;29.73;;
21731;SDS011;11028;51.156;17.130;2022-11-20T17:03:29;63.80;;;29.38;;
21731;SDS011;11028;51.156;17.130;2022-11-20T17:10:45;75.25;;;33.30;;
21731;SDS011;11028;51.156;17.130;2022-11-20T17:18:02;70.25;;;30.60;;
21731;SDS011;11028;51.156;17.130;2022-11-20T17:25:21;63.13;;;29.38;;
21731;SDS011;11028;51.156;17.130;2022-11-20T17:41:24;53.53;;;26.08;;
21731;SDS011;11028;51.156;17.130;2022-11-20T17:48:56;55.97;;;24.48;;
21731;SDS011;11028;51.156;17.130;2022-11-20T17:56:18;66.93;;;27.15;;
21731;SDS011;11028;51.156;17.130;2022-11-20T18:03:57;58.40;;;24.30;;
21731;SDS011;11028;51.156;17.130;2022-11-20T18:11:15;55.13;;;23.05;;
21731;SDS011;11028;51.156;17.130;2022-11-20T18:18:43;54.38;;;23.08;;
21731;SDS011;11028;51.156;17.130;2022-11-20T18:26:02;60.60;;;24.30;;
21731;SDS011;11028;51.156;17.130;2022-11-20T18:33:24;55.42;;;24.30;;
21731;SDS011;11028;51.156;17.130;2022-11-20T18:40:44;62.20;;;26.98;;
21731;SDS011;11028;51.156;17.130;2022-11-20T18:48:03;64.28;;;26.95;;
21731;SDS011;11028;51.156;17.130;2022-11-20T18:55:20;73.93;;;29.17;;
21731;SDS011;11028;51.156;17.130;2022-11-20T19:11:24;63.72;;;24.58;;
21731;SDS011;11028;51.156;17.130;2022-11-20T19:18:41;53.83;;;23.65;;
21731;SDS011;11028;51.156;17.130;2022-11-20T19:25:58;204.07;;;82.82;;
21731;SDS011;11028;51.156;17.130;2022-11-20T19:42:01;62.75;;;26.77;;
21731;SDS011;11028;51.156;17.130;2022-11-20T19:49:18;62.25;;;25.55;;
21731;SDS011;11028;51.156;17.130;2022-11-20T19:56:35;54.08;;;24.63;;
21731;SDS011;11028;51.156;17.130;2022-11-20T20:03:53;60.92;;;26.70;;
21731;SDS011;11028;51.156;17.130;2022-11-20T20:11:15;56.13;;;22.13;;
21731;SDS011;11028;51.156;17.130;2022-11-20T20:18:33;70.30;;;27.63;;
21731;SDS011;11028;51.156;17.130;2022-11-20T20:25:51;65.65;;;28.23;;
21731;SDS011;11028;51.156;17.130;2022-11-20T20:41:53;70.75;;;29.17;;
21731;SDS011;11028;51.156;17.130;2022-11-20T20:49:10;71.00;;;30.40;;
21731;SDS011;11028;51.156;17.130;2022-11-20T20:56:27;67.47;;;29.63;;
21731;SDS011;11028;51.156;17.130;2022-11-20T21:03:45;78.03;;;32.65;;
21731;SDS011;11028;51.156;17.130;2022-11-20T21:11:03;81.25;;;32.90;;
21731;SDS011;11028;51.156;17.130;2022-11-20T21:18:21;96.15;;;38.95;;
21731;SDS011;11028;51.156;17.130;2022-11-20T21:25:40;74.57;;;31.38;;
21731;SDS011;11028;51.156;17.130;2022-11-20T21:32:56;68.40;;;28.98;;
21731;SDS011;11028;51.156;17.130;2022-11-20T21:40:13;68.80;;;29.48;;
21731;SDS011;11028;51.156;17.130;2022-11-20T21:47:32;74.28;;;30.25;;
21731;SDS011;11028;51.156;17.130;2022-11-20T21:54:48;79.88;;;34.08;;
21731;SDS011;11028;51.156;17.130;2022-11-20T22:02:05;81.00;;;33.72;;
21731;SDS011;11028;51.156;17.130;2022-11-20T22:09:24;81.00;;;34.17;;
21731;SDS011;11028;51.156;17.130;2022-11-20T22:16:42;80.97;;;34.13;;
21731;SDS011;11028;51.156;17.130;2022-11-20T22:23:59;74.20;;;31.00;;
21731;SDS011;11028;51.156;17.130;2022-11-20T22:31:17;89.18;;;33.08;;
21731;SDS011;11028;51.156;17.130;2022-11-20T22:38:35;82.50;;;34.78;;
21731;SDS011;11028;51.156;17.130;2022-11-20T22:45:52;102.53;;;39.45;;
21731;SDS011;11028;51.156;17.130;2022-11-20T22:53:10;89.57;;;39.08;;
21731;SDS011;11028;51.156;17.130;2022-11-20T23:00:28;94.05;;;38.00;;
21731;SDS011;11028;51.156;17.130;2022-11-20T23:07:45;94.82;;;37.75;;
21731;SDS011;11028;51.156;17.130;2022-11-20T23:15:04;90.28;;;36.78;;
21731;SDS011;11028;51.156;17.130;2022-11-20T23:22:23;93.30;;;36.10;;
21731;SDS011;11028;51.156;17.130;2022-11-20T23:29:40;89.13;;;36.65;;
21731;SDS011;11028;51.156;17.130;2022-11-20T23:36:59;89.55;;;35.97;;
21731;SDS011;11028;51.156;17.130;2022-11-20T23:44:16;88.68;;;36.58;;
21731;SDS011;11028;51.156;17.130;2022-11-20T23:51:33;93.47;;;38.20;;
21731;SDS011;11028;51.156;17.130;2022-11-20T23:58:51;80.97;;;33.42;;
